• Join FlightAware (Why Join?)
  • Login
  • US Flag 
12:34PM EDT


 

Airport Tracker/Info


-or-


 

Live Flight TrackerFlight Track Log ✈ LXJ342 ✈ 02-Jul-2013 ✈ KPLN - KTEB

Flight Track Log - Related Links

Times and Time Zones

All times are in EDT time to prevent confusion due to time zone crossing. See the LXJ342 flight status page for this flight to view local times or setup timezone preferences in your user account.

Time Position Orientation Groundspeed Altitude Reporting Facility
EDT Latitude Longitude Course Direction KTS MPH feet Rate Location/Type
06:21PM 45.5306 -84.7519 125° Southeast 280 322 2,900  Level Minneapolis Center
06:22PM 45.4931 -84.6756 125° Southeast 230 265 7,000 3,840 Climbing Minneapolis Center
06:23PM 45.4606 -84.5803 116° Southeast 269 310 10,900 3,480 Climbing Minneapolis Center
06:24PM 45.4200 -84.4597 116° Southeast 316 364 14,300 3,000 Climbing Minneapolis Center
06:25PM 45.3786 -84.3347 115° Southeast 348 400 17,200 2,640 Climbing Minneapolis Center
06:26PM 45.3350 -84.2017 115° Southeast 353 406 19,800 2,400 Climbing Minneapolis Center
06:27PM 45.2914 -84.0678 115° Southeast 361 415 22,200 2,220 Climbing Minneapolis Center
06:28PM 45.2422 -83.9269 116° Southeast 383 441 24,500 1,980 Climbing Minneapolis Center
06:29PM 45.1950 -83.7847 115° Southeast 394 453 26,400 1,740 Climbing Minneapolis Center
06:30PM 45.1431 -83.6356 116° Southeast 410 472 28,200 1,920 Climbing Minneapolis Center
06:31PM 45.0803 -83.4556 116° Southeast 421 484 30,400 1,740 Climbing Minneapolis Center
06:32PM 45.0328 -83.2981 113° Southeast 432 497 31,800 1,260 Climbing Minneapolis Center
06:33PM 45.0608 -83.1194 77° East 456 525 33,100 1,200 Climbing Minneapolis Center
06:34PM 45.0867 -82.9375 79° East 465 535 34,400 1,260 Climbing Minneapolis Center
06:35PM 45.1097 -82.7567 80° East 469 540 35,800 960 Climbing Minneapolis Center
06:36PM 45.1231 -82.5739 84° East 468 539 36,500 720 Climbing Minneapolis Center
06:37PM 45.1383 -82.3469 84° East 476 548 37,400 720 Climbing Minneapolis Center
06:38PM 45.1333 -82.1167 92° East 490 564 38,100 600 Climbing Toronto Center
06:39PM 45.0833 -81.9500 113° Southeast 460 529 38,700 840 Climbing Toronto Center
06:40PM 45.0167 -81.8333 129° Southeast 430 495 39,800 1,020 Climbing Toronto Center
06:41PM 44.9333 -81.7000 131° Southeast 420 483 40,800 600 Climbing Toronto Center
06:42PM 44.8667 -81.5833 129° Southeast 420 483 41,000 60 Climbing Toronto Center
06:43PM 44.7833 -81.4333 128° Southeast 430 495 41,000  Level Toronto Center
06:44PM 44.7000 -81.3167 135° Southeast 440 506 41,000  Level Toronto Center
06:45PM 44.6167 -81.1833 131° Southeast 440 506 41,000  Level Toronto Center
06:46PM 44.5333 -81.0667 135° Southeast 430 495 41,000  Level Toronto Center
06:47PM 44.4667 -80.9333 125° Southeast 420 483 41,000  Level Toronto Center
06:48PM 44.4000 -80.8000 125° Southeast 430 495 41,000  Level Toronto Center
06:49PM 44.3167 -80.6833 135° Southeast 430 495 41,000  Level Toronto Center
06:50PM 44.2333 -80.5333 128° Southeast 440 506 41,000  Level Toronto Center
06:51PM 44.1667 -80.4167 129° Southeast 450 518 41,000  Level Toronto Center
06:52PM 44.0833 -80.2833 131° Southeast 450 518 41,000  Level Toronto Center
06:53PM 44.0000 -80.1500 131° Southeast 450 518 41,000 -600 Level Toronto Center
06:54PM 43.9167 -80.0333 135° Southeast 450 518 39,800 -1,380 Descending Toronto Center
06:55PM 43.8333 -79.9167 135° Southeast 430 495 38,300 -1,140 Descending Toronto Center
06:56PM 43.7667 -79.8000 128° Southeast 400 460 37,600 -1,080 Descending Toronto Center
06:57PM 43.6833 -79.6500 127° Southeast 420 483 36,200 -1,560 Descending Toronto Center
06:58PM 43.6167 -79.5000 122° Southeast 450 518 34,500 -1,500 Descending Toronto Center
06:59PM 43.5667 -79.3500 115° Southeast 450 518 33,300 -780 Descending Toronto Center
07:00PM 43.5167 -79.2167 117° Southeast 450 518 33,000 -180 Descending Toronto Center
07:01PM 43.4500 -79.0333 117° Southeast 450 518 33,000  Level Toronto Center
07:02PM 43.4000 -78.8833 115° Southeast 460 529 33,000  Level Toronto Center
07:03PM 43.3500 -78.7167 112° Southeast 460 529 33,000  Level Toronto Center
07:04PM 43.3000 -78.5833 117° Southeast 460 529 33,000  Level Toronto Center
07:05PM 43.2167 -78.4167 124° Southeast 460 529 33,000  Level Toronto Center
07:07PM 43.1700 -78.2347 109° East 459 528 33,000  Level Cleveland Center
07:08PM 43.1125 -78.0778 117° Southeast 459 528 33,000  Level Cleveland Center
07:09PM 43.0550 -77.9236 117° Southeast 459 528 33,000 -660 Level Cleveland Center
07:10PM 43.0011 -77.7697 116° Southeast 459 528 31,700 -1,200 Descending Cleveland Center
07:11PM 42.9453 -77.6192 117° Southeast 453 521 30,600 -1,020 Descending Cleveland Center
07:12PM 42.8914 -77.4686 116° Southeast 448 516 29,700 -840 Descending Cleveland Center
07:13PM 42.8353 -77.3214 117° Southeast 442 509 29,000 -420 Descending Cleveland Center
07:14PM 42.7808 -77.1742 117° Southeast 442 509 28,900 -540 Descending Cleveland Center
07:15PM 42.7211 -77.0164 117° Southeast 454 522 28,000 -900 Descending Boston Center
07:16PM 42.6606 -76.8594 118° Southeast 466 536 27,100 -540 Descending Boston Center
07:17PM 42.6017 -76.7056 117° Southeast 466 536 27,000 -60 Descending Boston Center
07:18PM 42.5431 -76.5464 117° Southeast 466 536 27,000  Level Boston Center
07:19PM 42.4836 -76.3933 118° Southeast 466 536 27,000  Level Boston Center
07:20PM 42.4244 -76.2375 117° Southeast 466 536 27,000 -60 Level Boston Center
07:21PM 42.3608 -76.0792 118° Southeast 466 536 26,900 -180 Descending Boston Center
07:22PM 42.3011 -75.9239 117° Southeast 466 536 26,700 -1,440 Descending Boston Center
07:23PM 42.2414 -75.7608 116° Southeast 471 542 24,100 -2,520 Descending Boston Center
07:24PM 42.1850 -75.6147 117° Southeast 465 535 21,700 -2,340 Descending Boston Center
07:25PM 42.1369 -75.4725 114° Southeast 444 511 19,500 2,640 Descending Boston Center
07:26PM 42.0819 -75.3439 120° Southeast 415 478 27,000 -1,260 Climbing Boston Center
07:27PM 42.0286 -75.2183 120° Southeast 402 463 17,000 -5,040 Descending Boston Center
07:28PM 41.9836 -75.1047 118° Southeast 379 436 17,000  Level Boston Center
07:29PM 41.9283 -74.9628 118° Southeast 385 443 17,000  Level Boston Center
07:30PM 41.8850 -74.8439 116° Southeast 391 450 17,000 -1,320 Level Boston Center
07:31PM 41.8297 -74.7025 118° Southeast 398 458 14,400 -2,640 Descending Boston Center
07:32PM 41.7881 -74.5925 117° Southeast 380 437 11,800 -2,400 Descending Boston Center
07:33PM 41.7100 -74.5369 152° Southeast 285 328 9,700 -2,280 Descending Boston Center
07:34PM 41.6389 -74.5483 187° South 271 312 7,300 -1,860 Descending Boston Center
07:35PM 41.5572 -74.5653 189° South 272 313 6,000 -660 Descending Boston Center
07:36PM 41.4944 -74.5769 188° South 266 306 6,000 -300 Level Boston Center
07:38PM 41.3167 -74.5667 178° South 263 303 5,100 -600 Descending New York TRACON
07:39PM 41.2667 -74.5000 135° Southeast 274 315 4,000 -540 Descending New York TRACON
07:40PM 41.2167 -74.4167 129° Southeast 276 318 4,000  Level New York TRACON
07:41PM 41.1833 -74.3333 118° Southeast 276 318 4,000 -480 Level New York TRACON
07:42PM 41.1167 -74.2667 143° Southeast 258 297 3,100 -540 Descending New York TRACON
07:43PM 41.0667 -74.2167 143° Southeast 258 297 3,000 -420 Descending New York TRACON
07:44PM 41.0167 -74.1500 135° Southeast 249 287 2,300 -660 Descending New York TRACON
07:45PM 40.9667 -74.1000 143° Southeast 215 247 1,700 -480 Descending New York TRACON
07:46PM 40.9167 -74.0500 143° Southeast 204 235 1,400 -600 Descending New York TRACON
07:47PM 40.8833 -74.0500 180° South 143 165 500 -900 Descending New York TRACON